sensor_id;sensor_type;location;lat;lon;timestamp;temperature;humidity
64918;HTU21D;52176;44.858;38.372;2023-06-05T00:00:13;19.24;88.40
64918;HTU21D;52176;44.858;38.372;2023-06-05T00:02:40;19.22;88.84
64918;HTU21D;52176;44.858;38.372;2023-06-05T00:05:06;19.31;88.67
64918;HTU21D;52176;44.858;38.372;2023-06-05T00:07:34;19.29;88.18
64918;HTU21D;52176;44.858;38.372;2023-06-05T00:10:00;19.24;88.51
64918;HTU21D;52176;44.858;38.372;2023-06-05T00:12:26;19.30;88.30
64918;HTU21D;52176;44.858;38.372;2023-06-05T00:14:52;19.33;87.99
64918;HTU21D;52176;44.858;38.372;2023-06-05T00:17:18;19.38;87.88
64918;HTU21D;52176;44.858;38.372;2023-06-05T00:19:44;19.35;87.48
64918;HTU21D;52176;44.858;38.372;2023-06-05T00:22:10;19.25;87.39
64918;HTU21D;52176;44.858;38.372;2023-06-05T00:24:36;19.15;87.40
64918;HTU21D;52176;44.858;38.372;2023-06-05T00:27:02;19.07;88.72
64918;HTU21D;52176;44.858;38.372;2023-06-05T00:29:27;19.07;88.19
64918;HTU21D;52176;44.858;38.372;2023-06-05T00:31:53;19.06;88.92
64918;HTU21D;52176;44.858;38.372;2023-06-05T00:34:19;19.13;88.73
64918;HTU21D;52176;44.858;38.372;2023-06-05T00:36:45;19.12;88.18
64918;HTU21D;52176;44.858;38.372;2023-06-05T00:39:16;19.10;88.62
64918;HTU21D;52176;44.858;38.372;2023-06-05T00:41:45;19.07;88.12
64918;HTU21D;52176;44.858;38.372;2023-06-05T00:44:11;19.03;88.67
64918;HTU21D;52176;44.858;38.372;2023-06-05T00:46:38;19.09;88.51
64918;HTU21D;52176;44.858;38.372;2023-06-05T00:49:05;19.15;88.22
64918;HTU21D;52176;44.858;38.372;2023-06-05T00:51:31;19.13;87.77
64918;HTU21D;52176;44.858;38.372;2023-06-05T00:53:57;19.06;87.61
64918;HTU21D;52176;44.858;38.372;2023-06-05T00:56:23;18.96;87.56
64918;HTU21D;52176;44.858;38.372;2023-06-05T00:58:49;18.91;88.80
64918;HTU21D;52176;44.858;38.372;2023-06-05T01:01:16;18.88;88.32
64918;HTU21D;52176;44.858;38.372;2023-06-05T01:03:42;18.91;89.09
64918;HTU21D;52176;44.858;38.372;2023-06-05T01:06:10;18.99;88.93
64918;HTU21D;52176;44.858;38.372;2023-06-05T01:08:37;18.99;88.39
64918;HTU21D;52176;44.858;38.372;2023-06-05T01:11:15;18.95;88.07
64918;HTU21D;52176;44.858;38.372;2023-06-05T01:13:44;18.87;87.96
64918;HTU21D;52176;44.858;38.372;2023-06-05T01:16:12;18.79;87.96
64918;HTU21D;52176;44.858;38.372;2023-06-05T01:18:40;18.77;89.58
64918;HTU21D;52176;44.858;38.372;2023-06-05T01:21:12;18.87;89.60
64918;HTU21D;52176;44.858;38.372;2023-06-05T01:23:42;18.87;88.90
64918;HTU21D;52176;44.858;38.372;2023-06-05T01:26:12;18.82;88.67
64918;HTU21D;52176;44.858;38.372;2023-06-05T01:28:41;18.74;88.45
64918;HTU21D;52176;44.858;38.372;2023-06-05T01:31:09;18.69;89.76
64918;HTU21D;52176;44.858;38.372;2023-06-05T01:33:50;18.66;89.14
64918;HTU21D;52176;44.858;38.372;2023-06-05T01:36:22;18.65;89.81
64918;HTU21D;52176;44.858;38.372;2023-06-05T01:38:49;18.71;89.52
64918;HTU21D;52176;44.858;38.372;2023-06-05T01:41:15;18.76;88.91
64918;HTU21D;52176;44.858;38.372;2023-06-05T01:43:41;18.68;88.63
64918;HTU21D;52176;44.858;38.372;2023-06-05T01:46:07;18.55;88.38
64918;HTU21D;52176;44.858;38.372;2023-06-05T01:48:35;18.46;88.46
64918;HTU21D;52176;44.858;38.372;2023-06-05T01:51:01;18.35;88.50
64918;HTU21D;52176;44.858;38.372;2023-06-05T01:53:28;18.29;89.50
64918;HTU21D;52176;44.858;38.372;2023-06-05T01:55:55;18.30;89.00
64918;HTU21D;52176;44.858;38.372;2023-06-05T01:58:26;18.33;89.44
64918;HTU21D;52176;44.858;38.372;2023-06-05T02:00:52;18.43;89.34
64918;HTU21D;52176;44.858;38.372;2023-06-05T02:03:19;18.54;88.80
64918;HTU21D;52176;44.858;38.372;2023-06-05T02:05:45;18.52;88.31
64918;HTU21D;52176;44.858;38.372;2023-06-05T02:08:12;18.46;88.09
64918;HTU21D;52176;44.858;38.372;2023-06-05T02:10:39;18.38;88.01
64918;HTU21D;52176;44.858;38.372;2023-06-05T02:13:09;18.32;88.74
64918;HTU21D;52176;44.858;38.372;2023-06-05T02:15:35;18.40;88.65
64918;HTU21D;52176;44.858;38.372;2023-06-05T02:18:03;18.48;88.05
64918;HTU21D;52176;44.858;38.372;2023-06-05T02:20:34;18.46;87.62
64918;HTU21D;52176;44.858;38.372;2023-06-05T02:23:01;18.40;87.48
64918;HTU21D;52176;44.858;38.372;2023-06-05T02:25:28;18.32;87.51
64918;HTU21D;52176;44.858;38.372;2023-06-05T02:27:55;18.26;88.56
64918;HTU21D;52176;44.858;38.372;2023-06-05T02:30:23;18.36;88.37
64918;HTU21D;52176;44.858;38.372;2023-06-05T02:36:25;18.52;87.52
64918;HTU21D;52176;44.858;38.372;2023-06-05T02:38:52;18.56;87.26
64918;HTU21D;52176;44.858;38.372;2023-06-05T02:41:19;18.54;87.00
64918;HTU21D;52176;44.858;38.372;2023-06-05T02:43:47;18.49;87.46
64918;HTU21D;52176;44.858;38.372;2023-06-05T02:46:14;18.52;87.32
64918;HTU21D;52176;44.858;38.372;2023-06-05T02:48:40;18.49;87.00
64918;HTU21D;52176;44.858;38.372;2023-06-05T02:51:05;18.42;86.84
64918;HTU21D;52176;44.858;38.372;2023-06-05T02:53:32;18.33;87.91
64918;HTU21D;52176;44.858;38.372;2023-06-05T02:55:59;18.29;87.48
64918;HTU21D;52176;44.858;38.372;2023-06-05T02:58:28;18.26;88.43
64918;HTU21D;52176;44.858;38.372;2023-06-05T03:00:57;18.34;88.31
64918;HTU21D;52176;44.858;38.372;2023-06-05T03:03:30;18.34;87.74
64918;HTU21D;52176;44.858;38.372;2023-06-05T03:06:00;18.30;88.32
64918;HTU21D;52176;44.858;38.372;2023-06-05T03:08:36;18.36;88.14
64918;HTU21D;52176;44.858;38.372;2023-06-05T03:11:02;18.41;88.04
64918;HTU21D;52176;44.858;38.372;2023-06-05T03:17:04;18.54;87.66
64918;HTU21D;52176;44.858;38.372;2023-06-05T03:19:31;18.57;87.54
64918;HTU21D;52176;44.858;38.372;2023-06-05T03:22:01;18.63;87.50
64918;HTU21D;52176;44.858;38.372;2023-06-05T03:24:28;18.64;87.31
64918;HTU21D;52176;44.858;38.372;2023-06-05T03:30:35;18.58;86.74
64918;HTU21D;52176;44.858;38.372;2023-06-05T03:33:02;18.43;86.71
64918;HTU21D;52176;44.858;38.372;2023-06-05T03:35:29;18.32;88.20
64918;HTU21D;52176;44.858;38.372;2023-06-05T03:38:01;18.35;88.39
64918;HTU21D;52176;44.858;38.372;2023-06-05T03:40:27;18.40;88.16
64918;HTU21D;52176;44.858;38.372;2023-06-05T03:42:54;18.44;88.09
64918;HTU21D;52176;44.858;38.372;2023-06-05T03:45:20;18.48;87.77
64918;HTU21D;52176;44.858;38.372;2023-06-05T03:47:48;18.48;87.60
64918;HTU21D;52176;44.858;38.372;2023-06-05T03:50:16;18.49;87.51
64918;HTU21D;52176;44.858;38.372;2023-06-05T03:52:43;18.43;87.18
64918;HTU21D;52176;44.858;38.372;2023-06-05T03:55:09;18.40;86.96
64918;HTU21D;52176;44.858;38.372;2023-06-05T03:57:36;18.25;86.95
64918;HTU21D;52176;44.858;38.372;2023-06-05T04:00:08;18.15;88.51
64918;HTU21D;52176;44.858;38.372;2023-06-05T04:02:45;18.14;87.97
64918;HTU21D;52176;44.858;38.372;2023-06-05T04:05:14;18.14;88.73
64918;HTU21D;52176;44.858;38.372;2023-06-05T04:07:40;18.17;88.12
64918;HTU21D;52176;44.858;38.372;2023-06-05T04:10:08;18.19;88.76
64918;HTU21D;52176;44.858;38.372;2023-06-05T04:12:33;18.23;88.12
64918;HTU21D;52176;44.858;38.372;2023-06-05T04:14:59;18.24;87.82
64918;HTU21D;52176;44.858;38.372;2023-06-05T04:17:25;18.28;88.57
64918;HTU21D;52176;44.858;38.372;2023-06-05T04:19:51;18.43;87.93
64918;HTU21D;52176;44.858;38.372;2023-06-05T04:22:17;18.42;87.45
64918;HTU21D;52176;44.858;38.372;2023-06-05T04:24:43;18.42;87.89
64918;HTU21D;52176;44.858;38.372;2023-06-05T04:27:08;18.61;87.70
64918;HTU21D;52176;44.858;38.372;2023-06-05T04:29:35;18.74;86.88
64918;HTU21D;52176;44.858;38.372;2023-06-05T04:32:01;18.86;86.06
64918;HTU21D;52176;44.858;38.372;2023-06-05T04:34:27;18.99;85.35
64918;HTU21D;52176;44.858;38.372;2023-06-05T04:36:52;19.09;84.66
64918;HTU21D;52176;44.858;38.372;2023-06-05T04:39:19;19.17;84.40
64918;HTU21D;52176;44.858;38.372;2023-06-05T04:41:45;19.28;84.10
64918;HTU21D;52176;44.858;38.372;2023-06-05T04:44:17;19.36;83.93
64918;HTU21D;52176;44.858;38.372;2023-06-05T04:46:43;19.39;84.28
64918;HTU21D;52176;44.858;38.372;2023-06-05T04:49:10;19.56;83.73
64918;HTU21D;52176;44.858;38.372;2023-06-05T04:51:37;19.71;83.39
64918;HTU21D;52176;44.858;38.372;2023-06-05T04:54:03;19.85;82.45
64918;HTU21D;52176;44.858;38.372;2023-06-05T04:56:29;19.92;81.90
64918;HTU21D;52176;44.858;38.372;2023-06-05T04:58:58;19.95;81.43
64918;HTU21D;52176;44.858;38.372;2023-06-05T05:01:25;20.01;81.62
64918;HTU21D;52176;44.858;38.372;2023-06-05T05:03:53;20.06;81.36
64918;HTU21D;52176;44.858;38.372;2023-06-05T05:06:20;20.12;81.09
64918;HTU21D;52176;44.858;38.372;2023-06-05T05:08:47;20.11;80.91
64918;HTU21D;52176;44.858;38.372;2023-06-05T05:11:14;19.96;80.85
64918;HTU21D;52176;44.858;38.372;2023-06-05T05:13:41;19.98;81.07
64918;HTU21D;52176;44.858;38.372;2023-06-05T05:16:07;20.07;80.89
64918;HTU21D;52176;44.858;38.372;2023-06-05T05:18:34;20.06;80.70
64918;HTU21D;52176;44.858;38.372;2023-06-05T05:21:00;19.97;80.98
64918;HTU21D;52176;44.858;38.372;2023-06-05T05:23:28;19.99;80.59
64918;HTU21D;52176;44.858;38.372;2023-06-05T05:25:54;20.07;80.94
64918;HTU21D;52176;44.858;38.372;2023-06-05T05:28:20;20.15;80.64
64918;HTU21D;52176;44.858;38.372;2023-06-05T05:30:46;20.21;80.61
64918;HTU21D;52176;44.858;38.372;2023-06-05T05:33:12;20.31;80.53
64918;HTU21D;52176;44.858;38.372;2023-06-05T05:35:41;20.44;80.55
64918;HTU21D;52176;44.858;38.372;2023-06-05T05:38:07;20.65;79.42
64918;HTU21D;52176;44.858;38.372;2023-06-05T05:40:34;20.80;79.14
64918;HTU21D;52176;44.858;38.372;2023-06-05T05:43:00;20.88;79.18
64918;HTU21D;52176;44.858;38.372;2023-06-05T05:45:26;20.91;79.01
64918;HTU21D;52176;44.858;38.372;2023-06-05T05:47:52;20.95;78.96
64918;HTU21D;52176;44.858;38.372;2023-06-05T05:50:17;21.18;78.59
64918;HTU21D;52176;44.858;38.372;2023-06-05T05:52:43;21.30;77.69
64918;HTU21D;52176;44.858;38.372;2023-06-05T05:55:10;21.57;76.73
64918;HTU21D;52176;44.858;38.372;2023-06-05T05:57:36;21.77;76.52
64918;HTU21D;52176;44.858;38.372;2023-06-05T06:00:03;21.80;75.47
64918;HTU21D;52176;44.858;38.372;2023-06-05T06:02:36;21.93;75.63
64918;HTU21D;52176;44.858;38.372;2023-06-05T06:05:02;22.05;75.57
64918;HTU21D;52176;44.858;38.372;2023-06-05T06:07:28;22.05;74.86
64918;HTU21D;52176;44.858;38.372;2023-06-05T06:09:54;22.25;74.96
64918;HTU21D;52176;44.858;38.372;2023-06-05T06:12:20;22.42;74.76
64918;HTU21D;52176;44.858;38.372;2023-06-05T06:14:46;22.39;74.96
64918;HTU21D;52176;44.858;38.372;2023-06-05T06:17:13;22.46;74.96
64918;HTU21D;52176;44.858;38.372;2023-06-05T06:19:39;22.33;75.09
64918;HTU21D;52176;44.858;38.372;2023-06-05T06:22:06;22.13;74.86
64918;HTU21D;52176;44.858;38.372;2023-06-05T06:24:38;22.17;74.91
64918;HTU21D;52176;44.858;38.372;2023-06-05T06:27:04;22.03;75.15
64918;HTU21D;52176;44.858;38.372;2023-06-05T06:29:30;22.09;74.83
64918;HTU21D;52176;44.858;38.372;2023-06-05T06:31:57;22.19;74.50
64918;HTU21D;52176;44.858;38.372;2023-06-05T06:34:23;22.18;74.67
64918;HTU21D;52176;44.858;38.372;2023-06-05T06:36:50;22.17;75.36
64918;HTU21D;52176;44.858;38.372;2023-06-05T06:39:16;22.33;75.15
64918;HTU21D;52176;44.858;38.372;2023-06-05T06:41:44;22.36;74.12
64918;HTU21D;52176;44.858;38.372;2023-06-05T06:44:09;22.41;74.12
64918;HTU21D;52176;44.858;38.372;2023-06-05T06:46:35;22.40;74.47
64918;HTU21D;52176;44.858;38.372;2023-06-05T06:49:02;22.51;73.83
64918;HTU21D;52176;44.858;38.372;2023-06-05T06:51:28;22.50;73.74
64918;HTU21D;52176;44.858;38.372;2023-06-05T06:53:54;22.31;74.33
64918;HTU21D;52176;44.858;38.372;2023-06-05T06:56:20;22.32;74.70
64918;HTU21D;52176;44.858;38.372;2023-06-05T06:58:46;22.38;74.56
64918;HTU21D;52176;44.858;38.372;2023-06-05T07:01:11;22.27;74.76
64918;HTU21D;52176;44.858;38.372;2023-06-05T07:03:38;22.21;75.67
64918;HTU21D;52176;44.858;38.372;2023-06-05T07:06:05;22.38;75.24
64918;HTU21D;52176;44.858;38.372;2023-06-05T07:08:31;22.51;74.93
64918;HTU21D;52176;44.858;38.372;2023-06-05T07:10:57;22.61;74.83
64918;HTU21D;52176;44.858;38.372;2023-06-05T07:13:23;22.84;73.83
64918;HTU21D;52176;44.858;38.372;2023-06-05T07:15:48;23.10;73.09
64918;HTU21D;52176;44.858;38.372;2023-06-05T07:18:16;23.32;72.89
64918;HTU21D;52176;44.858;38.372;2023-06-05T07:20:42;23.51;72.23
64918;HTU21D;52176;44.858;38.372;2023-06-05T07:23:08;23.80;72.00
64918;HTU21D;52176;44.858;38.372;2023-06-05T07:25:34;24.03;71.24
64918;HTU21D;52176;44.858;38.372;2023-06-05T07:28:00;24.14;70.42
64918;HTU21D;52176;44.858;38.372;2023-06-05T07:30:26;24.18;70.56
64918;HTU21D;52176;44.858;38.372;2023-06-05T07:32:53;24.02;71.03
64918;HTU21D;52176;44.858;38.372;2023-06-05T07:35:20;23.80;71.57
64918;HTU21D;52176;44.858;38.372;2023-06-05T07:37:46;23.46;71.96
64918;HTU21D;52176;44.858;38.372;2023-06-05T07:40:12;23.43;72.48
64918;HTU21D;52176;44.858;38.372;2023-06-05T07:42:38;23.56;72.58
64918;HTU21D;52176;44.858;38.372;2023-06-05T07:45:04;23.83;72.21
64918;HTU21D;52176;44.858;38.372;2023-06-05T07:47:30;24.16;70.86
64918;HTU21D;52176;44.858;38.372;2023-06-05T07:49:59;24.35;70.95
64918;HTU21D;52176;44.858;38.372;2023-06-05T07:52:26;24.57;70.92
64918;HTU21D;52176;44.858;38.372;2023-06-05T07:54:52;24.62;70.66
64918;HTU21D;52176;44.858;38.372;2023-06-05T07:57:18;24.56;69.91
64918;HTU21D;52176;44.858;38.372;2023-06-05T07:59:45;24.70;70.06
64918;HTU21D;52176;44.858;38.372;2023-06-05T08:02:13;24.60;69.91
64918;HTU21D;52176;44.858;38.372;2023-06-05T08:04:38;24.56;69.48
64918;HTU21D;52176;44.858;38.372;2023-06-05T08:07:04;24.51;69.87
64918;HTU21D;52176;44.858;38.372;2023-06-05T08:09:30;24.46;70.17
64918;HTU21D;52176;44.858;38.372;2023-06-05T08:11:56;24.38;70.82
64918;HTU21D;52176;44.858;38.372;2023-06-05T08:14:22;24.38;70.74
64918;HTU21D;52176;44.858;38.372;2023-06-05T08:16:48;24.16;70.74
64918;HTU21D;52176;44.858;38.372;2023-06-05T08:19:13;24.02;71.09
64918;HTU21D;52176;44.858;38.372;2023-06-05T08:21:40;24.02;71.35
64918;HTU21D;52176;44.858;38.372;2023-06-05T08:24:06;24.10;71.19
64918;HTU21D;52176;44.858;38.372;2023-06-05T08:26:32;24.19;70.88
64918;HTU21D;52176;44.858;38.372;2023-06-05T08:28:59;24.17;70.43
64918;HTU21D;52176;44.858;38.372;2023-06-05T08:31:25;24.28;70.86
64918;HTU21D;52176;44.858;38.372;2023-06-05T08:33:50;24.40;70.67
64918;HTU21D;52176;44.858;38.372;2023-06-05T08:36:16;24.45;70.70
64918;HTU21D;52176;44.858;38.372;2023-06-05T08:38:43;24.48;70.07
64918;HTU21D;52176;44.858;38.372;2023-06-05T08:41:09;24.66;69.28
64918;HTU21D;52176;44.858;38.372;2023-06-05T08:43:36;24.84;68.29
64918;HTU21D;52176;44.858;38.372;2023-06-05T08:46:02;24.90;67.94
64918;HTU21D;52176;44.858;38.372;2023-06-05T08:48:30;24.90;67.99
64918;HTU21D;52176;44.858;38.372;2023-06-05T08:50:57;24.99;67.11
64918;HTU21D;52176;44.858;38.372;2023-06-05T08:53:23;25.07;66.66
64918;HTU21D;52176;44.858;38.372;2023-06-05T08:55:53;25.21;66.43
64918;HTU21D;52176;44.858;38.372;2023-06-05T08:58:20;25.36;66.19
64918;HTU21D;52176;44.858;38.372;2023-06-05T09:00:46;25.57;65.67
64918;HTU21D;52176;44.858;38.372;2023-06-05T09:03:14;25.90;65.62
64918;HTU21D;52176;44.858;38.372;2023-06-05T09:05:46;26.38;63.98
64918;HTU21D;52176;44.858;38.372;2023-06-05T09:08:13;26.51;63.21
64918;HTU21D;52176;44.858;38.372;2023-06-05T09:10:39;26.87;63.68
64918;HTU21D;52176;44.858;38.372;2023-06-05T09:13:05;27.24;62.92
64918;HTU21D;52176;44.858;38.372;2023-06-05T09:15:32;27.13;61.76
64918;HTU21D;52176;44.858;38.372;2023-06-05T09:18:16;27.30;62.41
64918;HTU21D;52176;44.858;38.372;2023-06-05T09:20:43;27.20;62.92
64918;HTU21D;52176;44.858;38.372;2023-06-05T09:23:27;26.93;61.89
64918;HTU21D;52176;44.858;38.372;2023-06-05T09:25:53;26.91;62.63
64918;HTU21D;52176;44.858;38.372;2023-06-05T09:28:20;26.80;63.15
64918;HTU21D;52176;44.858;38.372;2023-06-05T09:30:59;26.72;63.53
64918;HTU21D;52176;44.858;38.372;2023-06-05T09:33:26;26.54;63.86
64918;HTU21D;52176;44.858;38.372;2023-06-05T09:36:08;26.21;63.68
64918;HTU21D;52176;44.858;38.372;2023-06-05T09:38:34;26.06;64.45
64918;HTU21D;52176;44.858;38.372;2023-06-05T09:41:01;26.02;63.85
64918;HTU21D;52176;44.858;38.372;2023-06-05T09:43:27;25.99;63.51
64918;HTU21D;52176;44.858;38.372;2023-06-05T09:45:52;25.86;63.45
64918;HTU21D;52176;44.858;38.372;2023-06-05T09:48:18;25.93;64.01
64918;HTU21D;52176;44.858;38.372;2023-06-05T09:50:45;26.04;64.23
64918;HTU21D;52176;44.858;38.372;2023-06-05T09:53:12;26.02;64.36
64918;HTU21D;52176;44.858;38.372;2023-06-05T09:55:40;25.96;63.91
64918;HTU21D;52176;44.858;38.372;2023-06-05T09:58:06;26.18;63.79
64918;HTU21D;52176;44.858;38.372;2023-06-05T10:00:37;26.39;63.10
64918;HTU21D;52176;44.858;38.372;2023-06-05T10:03:05;26.79;62.76
64918;HTU21D;52176;44.858;38.372;2023-06-05T10:05:33;27.00;61.10
64918;HTU21D;52176;44.858;38.372;2023-06-05T10:08:00;27.26;61.24
64918;HTU21D;52176;44.858;38.372;2023-06-05T10:10:26;27.17;60.77
64918;HTU21D;52176;44.858;38.372;2023-06-05T10:12:52;27.43;61.09
64918;HTU21D;52176;44.858;38.372;2023-06-05T10:15:22;27.47;59.74
64918;HTU21D;52176;44.858;38.372;2023-06-05T10:17:48;27.64;59.72
64918;HTU21D;52176;44.858;38.372;2023-06-05T10:20:14;27.99;58.67
64918;HTU21D;52176;44.858;38.372;2023-06-05T10:22:43;28.12;58.57
64918;HTU21D;52176;44.858;38.372;2023-06-05T10:25:10;28.09;58.28
64918;HTU21D;52176;44.858;38.372;2023-06-05T10:35:34;27.37;59.06
64918;HTU21D;52176;44.858;38.372;2023-06-05T10:40:32;28.61;56.23
64918;HTU21D;52176;44.858;38.372;2023-06-05T10:45:44;28.41;57.80
64918;HTU21D;52176;44.858;38.372;2023-06-05T10:48:10;28.73;57.04
64918;HTU21D;52176;44.858;38.372;2023-06-05T10:50:36;28.58;57.55
64918;HTU21D;52176;44.858;38.372;2023-06-05T10:53:02;28.13;57.87
64918;HTU21D;52176;44.858;38.372;2023-06-05T10:55:41;27.81;59.00
64918;HTU21D;52176;44.858;38.372;2023-06-05T10:58:08;27.39;59.19
64918;HTU21D;52176;44.858;38.372;2023-06-05T11:00:35;27.29;59.41
64918;HTU21D;52176;44.858;38.372;2023-06-05T11:03:01;27.29;59.33
64918;HTU21D;52176;44.858;38.372;2023-06-05T11:05:27;27.24;59.58
64918;HTU21D;52176;44.858;38.372;2023-06-05T11:08:12;27.20;60.44
64918;HTU21D;52176;44.858;38.372;2023-06-05T11:13:24;27.75;59.33
64918;HTU21D;52176;44.858;38.372;2023-06-05T11:15:50;27.65;58.89
64918;HTU21D;52176;44.858;38.372;2023-06-05T11:18:31;27.45;59.02
64918;HTU21D;52176;44.858;38.372;2023-06-05T11:20:57;27.56;58.90
64918;HTU21D;52176;44.858;38.372;2023-06-05T11:23:24;27.44;58.77
64918;HTU21D;52176;44.858;38.372;2023-06-05T11:25:53;27.06;60.28
64918;HTU21D;52176;44.858;38.372;2023-06-05T11:28:37;26.96;60.57
64918;HTU21D;52176;44.858;38.372;2023-06-05T11:31:04;27.11;61.05
64918;HTU21D;52176;44.858;38.372;2023-06-05T11:33:30;27.50;59.99
64918;HTU21D;52176;44.858;38.372;2023-06-05T11:35:59;28.12;57.31
64918;HTU21D;52176;44.858;38.372;2023-06-05T11:38:25;28.25;57.02
64918;HTU21D;52176;44.858;38.372;2023-06-05T11:40:51;28.08;57.32
64918;HTU21D;52176;44.858;38.372;2023-06-05T11:43:17;27.64;58.25
64918;HTU21D;52176;44.858;38.372;2023-06-05T11:45:53;27.42;59.40
64918;HTU21D;52176;44.858;38.372;2023-06-05T11:48:20;27.29;59.64
64918;HTU21D;52176;44.858;38.372;2023-06-05T11:53:21;26.96;59.95
64918;HTU21D;52176;44.858;38.372;2023-06-05T11:55:47;26.68;60.69
64918;HTU21D;52176;44.858;38.372;2023-06-05T11:58:25;26.72;60.86
64918;HTU21D;52176;44.858;38.372;2023-06-05T12:00:52;26.89;60.81
64918;HTU21D;52176;44.858;38.372;2023-06-05T12:03:18;27.15;60.75
64918;HTU21D;52176;44.858;38.372;2023-06-05T12:05:44;27.29;60.41
64918;HTU21D;52176;44.858;38.372;2023-06-05T12:08:26;27.23;60.02
64918;HTU21D;52176;44.858;38.372;2023-06-05T12:10:53;27.14;59.32
64918;HTU21D;52176;44.858;38.372;2023-06-05T12:13:19;27.11;59.92
64918;HTU21D;52176;44.858;38.372;2023-06-05T12:15:58;27.19;60.02
64918;HTU21D;52176;44.858;38.372;2023-06-05T12:18:33;27.63;58.88
64918;HTU21D;52176;44.858;38.372;2023-06-05T12:20:59;27.82;58.36
64918;HTU21D;52176;44.858;38.372;2023-06-05T12:23:25;28.06;58.20
64918;HTU21D;52176;44.858;38.372;2023-06-05T12:25:58;28.40;56.89
64918;HTU21D;52176;44.858;38.372;2023-06-05T12:28:24;28.76;56.61
64918;HTU21D;52176;44.858;38.372;2023-06-05T12:30:52;28.53;55.87
64918;HTU21D;52176;44.858;38.372;2023-06-05T12:33:18;28.29;57.03
64918;HTU21D;52176;44.858;38.372;2023-06-05T12:35:48;28.29;57.06
64918;HTU21D;52176;44.858;38.372;2023-06-05T12:38:14;28.41;57.08
64918;HTU21D;52176;44.858;38.372;2023-06-05T12:40:40;28.18;56.36
64918;HTU21D;52176;44.858;38.372;2023-06-05T12:43:17;27.91;57.77
64918;HTU21D;52176;44.858;38.372;2023-06-05T12:45:44;27.97;57.87
64918;HTU21D;52176;44.858;38.372;2023-06-05T12:48:09;27.93;57.40
64918;HTU21D;52176;44.858;38.372;2023-06-05T12:50:38;27.76;57.29
64918;HTU21D;52176;44.858;38.372;2023-06-05T12:53:07;27.46;58.39
64918;HTU21D;52176;44.858;38.372;2023-06-05T12:55:33;27.31;58.69
64918;HTU21D;52176;44.858;38.372;2023-06-05T12:57:58;27.14;59.26
64918;HTU21D;52176;44.858;38.372;2023-06-05T13:00:24;27.34;59.11
64918;HTU21D;52176;44.858;38.372;2023-06-05T13:02:50;27.67;58.76
64918;HTU21D;52176;44.858;38.372;2023-06-05T13:05:16;27.90;57.89
64918;HTU21D;52176;44.858;38.372;2023-06-05T13:07:42;27.78;57.10
64918;HTU21D;52176;44.858;38.372;2023-06-05T13:10:08;27.58;57.06
64918;HTU21D;52176;44.858;38.372;2023-06-05T13:12:34;27.65;57.59
64918;HTU21D;52176;44.858;38.372;2023-06-05T13:15:01;27.64;57.74
64918;HTU21D;52176;44.858;38.372;2023-06-05T13:17:41;27.66;58.72
64918;HTU21D;52176;44.858;38.372;2023-06-05T13:20:08;27.76;58.49
64918;HTU21D;52176;44.858;38.372;2023-06-05T13:22:39;27.82;58.22
64918;HTU21D;52176;44.858;38.372;2023-06-05T13:25:08;27.60;58.00
64918;HTU21D;52176;44.858;38.372;2023-06-05T13:27:35;27.14;58.81
64918;HTU21D;52176;44.858;38.372;2023-06-05T13:30:01;26.81;59.90
64918;HTU21D;52176;44.858;38.372;2023-06-05T13:32:29;26.73;60.04
64918;HTU21D;52176;44.858;38.372;2023-06-05T13:34:56;26.66;60.22
64918;HTU21D;52176;44.858;38.372;2023-06-05T13:37:23;26.71;60.68
64918;HTU21D;52176;44.858;38.372;2023-06-05T13:39:49;26.68;59.63
64918;HTU21D;52176;44.858;38.372;2023-06-05T13:42:14;26.62;60.08
64918;HTU21D;52176;44.858;38.372;2023-06-05T13:44:40;26.52;60.54
64918;HTU21D;52176;44.858;38.372;2023-06-05T13:47:06;26.52;60.69
64918;HTU21D;52176;44.858;38.372;2023-06-05T13:49:34;26.55;60.47
64918;HTU21D;52176;44.858;38.372;2023-06-05T13:52:00;26.49;60.60
64918;HTU21D;52176;44.858;38.372;2023-06-05T13:54:25;26.36;60.86
64918;HTU21D;52176;44.858;38.372;2023-06-05T13:56:51;26.27;61.23
64918;HTU21D;52176;44.858;38.372;2023-06-05T13:59:17;26.35;60.83
64918;HTU21D;52176;44.858;38.372;2023-06-05T14:01:43;26.40;60.96
64918;HTU21D;52176;44.858;38.372;2023-06-05T14:04:09;26.67;60.39
64918;HTU21D;52176;44.858;38.372;2023-06-05T14:06:34;26.98;60.35
64918;HTU21D;52176;44.858;38.372;2023-06-05T14:09:04;27.21;58.25
64918;HTU21D;52176;44.858;38.372;2023-06-05T14:11:30;27.40;57.93
64918;HTU21D;52176;44.858;38.372;2023-06-05T14:13:55;27.58;57.81
64918;HTU21D;52176;44.858;38.372;2023-06-05T14:16:22;27.60;57.80
64918;HTU21D;52176;44.858;38.372;2023-06-05T14:18:48;27.40;58.10
64918;HTU21D;52176;44.858;38.372;2023-06-05T14:21:15;27.19;58.31
64918;HTU21D;52176;44.858;38.372;2023-06-05T14:23:41;27.17;57.52
64918;HTU21D;52176;44.858;38.372;2023-06-05T14:26:08;27.07;57.75
64918;HTU21D;52176;44.858;38.372;2023-06-05T14:28:35;26.83;58.26
64918;HTU21D;52176;44.858;38.372;2023-06-05T14:31:01;26.70;59.34
64918;HTU21D;52176;44.858;38.372;2023-06-05T14:33:27;26.54;59.60
64918;HTU21D;52176;44.858;38.372;2023-06-05T14:35:54;26.31;60.30
64918;HTU21D;52176;44.858;38.372;2023-06-05T14:38:20;26.24;60.66
64918;HTU21D;52176;44.858;38.372;2023-06-05T14:40:46;26.21;60.83
64918;HTU21D;52176;44.858;38.372;2023-06-05T14:43:15;26.23;61.38
64918;HTU21D;52176;44.858;38.372;2023-06-05T14:45:43;26.17;61.63
64918;HTU21D;52176;44.858;38.372;2023-06-05T14:48:08;26.07;61.81
64918;HTU21D;52176;44.858;38.372;2023-06-05T14:50:37;25.96;62.29
64918;HTU21D;52176;44.858;38.372;2023-06-05T14:53:03;25.87;62.42
64918;HTU21D;52176;44.858;38.372;2023-06-05T14:55:29;25.74;62.70
64918;HTU21D;52176;44.858;38.372;2023-06-05T14:57:54;25.63;62.95
64918;HTU21D;52176;44.858;38.372;2023-06-05T15:00:21;25.53;63.36
64918;HTU21D;52176;44.858;38.372;2023-06-05T15:02:47;25.40;63.38
64918;HTU21D;52176;44.858;38.372;2023-06-05T15:05:13;25.27;63.98
64918;HTU21D;52176;44.858;38.372;2023-06-05T15:07:40;25.19;63.66
64918;HTU21D;52176;44.858;38.372;2023-06-05T15:10:06;25.09;63.75
64918;HTU21D;52176;44.858;38.372;2023-06-05T15:12:34;25.02;64.00
64918;HTU21D;52176;44.858;38.372;2023-06-05T15:15:00;24.93;64.07
64918;HTU21D;52176;44.858;38.372;2023-06-05T15:17:26;24.88;64.60
64918;HTU21D;52176;44.858;38.372;2023-06-05T15:19:52;24.89;64.06
64918;HTU21D;52176;44.858;38.372;2023-06-05T15:22:17;24.78;64.18
64918;HTU21D;52176;44.858;38.372;2023-06-05T15:24:44;24.69;64.98
64918;HTU21D;52176;44.858;38.372;2023-06-05T15:27:12;24.68;65.03
64918;HTU21D;52176;44.858;38.372;2023-06-05T15:29:38;24.65;65.10
64918;HTU21D;52176;44.858;38.372;2023-06-05T15:32:04;24.66;65.17